Rnli Lifeboat 17-16 — MCQT8 — position and weather

sailwx.info

Track history (hours):
 
Tides and Currents Weather Stations Pressure Air Temp Water Temp Dewpoint Dewpoint Depression Visibility Wind Speed Wind Dir Waves Ship Positions

Rnli Lifeboat 17-16

Last reported at 2017-Nov-17 12:32 UTC. Time now 2017-Nov-19 08:58 UTC.
Position N 58°58' W 003°18'.

Length 17 m; draft 1.4 m.

Type: SAR. MMSI: 232003134.

Date/timePositionNaut miles runAvg speedWind from/ knotsBaromVisibWave heightAir tempDewpointWater temp
2017-Nov-17 12:32N 58°58' W 003°18'0 0.0
2017-Nov-17 12:28N 58°58' W 003°18'0 0.0
2017-Nov-17 11:57N 58°58' W 003°18'0 0.0
2017-Nov-17 11:03N 58°58' W 003°18'0 0.1
2017-Nov-17 11:00N 58°58' W 003°18'0 0.0
2017-Nov-17 10:24N 58°58' W 003°18'0 0.0
2017-Nov-17 09:58N 58°58' W 003°18'0 0.0
2017-Nov-17 09:28N 58°58' W 003°18'0 0.0
2017-Nov-17 08:55N 58°58' W 003°18'0 0.0
2017-Nov-17 08:28N 58°58' W 003°18'0 0.0
2017-Nov-17 08:00N 58°58' W 003°18'0 0.0
2017-Nov-17 07:30N 58°58' W 003°18'0 0.0
2017-Nov-17 06:56N 58°58' W 003°18'0 0.0
2017-Nov-17 06:24N 58°58' W 003°18'0 0.0
2017-Nov-16 19:14N 58°58' W 003°18'0 0.0
2017-Nov-16 06:21N 58°58' W 003°18'0 0.0
2017-Nov-16 06:00N 58°58' W 003°18'0 0.0
2017-Nov-16 05:30N 58°58' W 003°18'0 0.0
2017-Nov-16 04:56N 58°58' W 003°18'0 0.0
2017-Nov-16 04:29N 58°58' W 003°18'0 0.0
2017-Nov-16 03:59N 58°58' W 003°18'0 0.0
2017-Nov-16 03:29N 58°58' W 003°18'0 0.0
2017-Nov-16 02:53N 58°58' W 003°18'0 0.0
2017-Nov-15 23:32N 58°58' W 003°18'0 0.0
2017-Nov-15 23:20N 58°58' W 003°18'0 0.0
2017-Nov-15 22:59N 58°58' W 003°18'0 0.0
2017-Nov-15 22:29N 58°58' W 003°18'0 0.0
2017-Nov-15 21:59N 58°58' W 003°18'0 0.0
2017-Nov-15 21:29N 58°58' W 003°18'0 0.0
2017-Nov-15 20:59N 58°58' W 003°18'0 0.0
2017-Nov-15 19:24N 58°58' W 003°18'0 0.0
2017-Nov-14 20:30N 58°58' W 003°18'0 0.0
2017-Nov-14 20:00N 58°58' W 003°18'0 0.0
2017-Nov-14 19:30N 58°58' W 003°18'0 0.0
2017-Nov-14 19:00N 58°58' W 003°18'0 0.0
2017-Nov-14 17:44N 58°58' W 003°18'0 0.0
2017-Nov-14 17:26N 58°58' W 003°18'0 0.0
2017-Nov-14 16:58N 58°58' W 003°18'  
2017-Nov-10 04:31N 58°58' W 003°18'0 0.0
2017-Nov-10 00:49N 58°58' W 003°18'0 0.0
2017-Nov-10 00:19N 58°58' W 003°18'0 0.0
2017-Nov-09 23:58N 58°58' W 003°18'0 0.0
2017-Nov-09 23:28N 58°58' W 003°18'0 0.0
2017-Nov-09 22:58N 58°58' W 003°18'0 0.0
2017-Nov-09 22:25N 58°58' W 003°18'0 0.0
2017-Nov-09 21:58N 58°58' W 003°18'0 0.0
2017-Nov-09 01:04N 58°58' W 003°18'0 0.0
2017-Nov-09 00:52N 58°58' W 003°18'0 0.0
2017-Nov-09 00:30N 58°58' W 003°18'0 0.0
2017-Nov-09 00:00N 58°58' W 003°18'0 0.0
2017-Nov-08 23:27N 58°58' W 003°18'0 0.0
2017-Nov-08 20:57N 58°58' W 003°18'0 1.0
2017-Nov-08 20:30N 58°57' W 003°18'611.0
2017-Nov-08 20:00N 58°52' W 003°13'1 2.6
2017-Nov-08 19:30N 58°54' W 003°13'5 1.9
2017-Nov-08 17:03N 58°58' W 003°18'0 0.1
2017-Nov-08 15:34N 58°58' W 003°18'113.4
2017-Nov-08 15:30N 58°57' W 003°17'4 8.2
2017-Nov-08 15:00N 58°53' W 003°13'1 2.2
2017-Nov-08 14:30N 58°52' W 003°13'6 2.7
2017-Nov-08 12:19N 58°58' W 003°18'0 0.0
2017-Nov-08 11:55N 58°58' W 003°18'0 0.0
2017-Nov-08 11:28N 58°58' W 003°18'0 0.0
2017-Nov-08 10:58N 58°58' W 003°18'  
Track history (hours):
 
Tides and Currents Weather Stations Pressure Air Temp Water Temp Dewpoint Dewpoint Depression Visibility Wind Speed Wind Dir Waves Ship Positions

Rnli Lifeboat 17-16

Last reported at 2017-Nov-17 12:32 UTC. Time now 2017-Nov-19 08:58 UTC.
Position N 58°58' W 003°18'.

Length 17 m; draft 1.4 m.

Type: SAR. MMSI: 232003134.

Date/timePositionNaut miles runAvg speedWind from/ knotsBaromVisibWave heightAir tempDewpointWater temp
2017-Nov-17 12:32N 58°58' W 003°18'0 0.0
2017-Nov-17 12:28N 58°58' W 003°18'0 0.0
2017-Nov-17 11:57N 58°58' W 003°18'0 0.0
2017-Nov-17 11:03N 58°58' W 003°18'0 0.1
2017-Nov-17 11:00N 58°58' W 003°18'0 0.0
2017-Nov-17 10:24N 58°58' W 003°18'0 0.0
2017-Nov-17 09:58N 58°58' W 003°18'0 0.0
2017-Nov-17 09:28N 58°58' W 003°18'0 0.0
2017-Nov-17 08:55N 58°58' W 003°18'0 0.0
2017-Nov-17 08:28N 58°58' W 003°18'0 0.0
2017-Nov-17 08:00N 58°58' W 003°18'0 0.0
2017-Nov-17 07:30N 58°58' W 003°18'0 0.0
2017-Nov-17 06:56N 58°58' W 003°18'0 0.0
2017-Nov-17 06:24N 58°58' W 003°18'0 0.0
2017-Nov-16 19:14N 58°58' W 003°18'0 0.0
2017-Nov-16 06:21N 58°58' W 003°18'0 0.0
2017-Nov-16 06:00N 58°58' W 003°18'0 0.0
2017-Nov-16 05:30N 58°58' W 003°18'0 0.0
2017-Nov-16 04:56N 58°58' W 003°18'0 0.0
2017-Nov-16 04:29N 58°58' W 003°18'0 0.0
2017-Nov-16 03:59N 58°58' W 003°18'0 0.0
2017-Nov-16 03:29N 58°58' W 003°18'0 0.0
2017-Nov-16 02:53N 58°58' W 003°18'0 0.0
2017-Nov-15 23:32N 58°58' W 003°18'0 0.0
2017-Nov-15 23:20N 58°58' W 003°18'0 0.0
2017-Nov-15 22:59N 58°58' W 003°18'0 0.0
2017-Nov-15 22:29N 58°58' W 003°18'0 0.0
2017-Nov-15 21:59N 58°58' W 003°18'0 0.0
2017-Nov-15 21:29N 58°58' W 003°18'0 0.0
2017-Nov-15 20:59N 58°58' W 003°18'0 0.0
2017-Nov-15 19:24N 58°58' W 003°18'0 0.0
2017-Nov-14 20:30N 58°58' W 003°18'0 0.0
2017-Nov-14 20:00N 58°58' W 003°18'0 0.0
2017-Nov-14 19:30N 58°58' W 003°18'0 0.0
2017-Nov-14 19:00N 58°58' W 003°18'0 0.0
2017-Nov-14 17:44N 58°58' W 003°18'0 0.0
2017-Nov-14 17:26N 58°58' W 003°18'0 0.0
2017-Nov-14 16:58N 58°58' W 003°18'  
2017-Nov-10 04:31N 58°58' W 003°18'0 0.0
2017-Nov-10 00:49N 58°58' W 003°18'0 0.0
2017-Nov-10 00:19N 58°58' W 003°18'0 0.0
2017-Nov-09 23:58N 58°58' W 003°18'0 0.0
2017-Nov-09 23:28N 58°58' W 003°18'0 0.0
2017-Nov-09 22:58N 58°58' W 003°18'0 0.0
2017-Nov-09 22:25N 58°58' W 003°18'0 0.0
2017-Nov-09 21:58N 58°58' W 003°18'0 0.0
2017-Nov-09 01:04N 58°58' W 003°18'0 0.0
2017-Nov-09 00:52N 58°58' W 003°18'0 0.0
2017-Nov-09 00:30N 58°58' W 003°18'0 0.0
2017-Nov-09 00:00N 58°58' W 003°18'0 0.0
2017-Nov-08 23:27N 58°58' W 003°18'0 0.0
2017-Nov-08 20:57N 58°58' W 003°18'0 1.0
2017-Nov-08 20:30N 58°57' W 003°18'611.0
2017-Nov-08 20:00N 58°52' W 003°13'1 2.6
2017-Nov-08 19:30N 58°54' W 003°13'5 1.9
2017-Nov-08 17:03N 58°58' W 003°18'0 0.1
2017-Nov-08 15:34N 58°58' W 003°18'113.4
2017-Nov-08 15:30N 58°57' W 003°17'4 8.2
2017-Nov-08 15:00N 58°53' W 003°13'1 2.2
2017-Nov-08 14:30N 58°52' W 003°13'6 2.7
2017-Nov-08 12:19N 58°58' W 003°18'0 0.0
2017-Nov-08 11:55N 58°58' W 003°18'0 0.0
2017-Nov-08 11:28N 58°58' W 003°18'0 0.0
2017-Nov-08 10:58N 58°58' W 003°18'  

Dump ship's entire track history